Kirbyville, Texas
Current Conditions -  °F | °C
As of 1:35 PM on Tuesday 21 Oct 2014 (Local Time) from KJAS Reporting Station
Clear Clear  
Wind Chill: 78°   Ceiling: Unl
Heat Index: 79°   Visibility: 10mi
Dew Point: 57°   Wind: 8mph
Humidity: 50%   Direction: 70°ENE
Pressure: 30.07"   Gusts: NA
Location:  30.66°N, 93.89°W
Report Text: KJAS 211835Z AUTO 07007KT 10SM CLR 25/14 A3007 RMK AO2 T02530141
Loading
Personal Weather Stations






























Interactive Weather Map
Tropical Storm Tracking
New forecast layout! Learn more

10-Day Weather Forecast

Advertisements
Track Severe Weather on mobile